INFORMACIÓN METAR y TAF
METAR FOR LEZL
ADDS - METARS form results

(1138 UTC 17 February 2019)
Data provider http://aviationweather.gov/metar/data/
 
METAR text: LEZL 171130Z 09003KT 030V150 CAVOK 17/07 Q1022 NOSIG
Conditions at: LEZL (SEVILLA (CIV/MIL, ES) observed 1130 UTC 17 February 2019
Temperature: 17.0°C (63°F)
Dewpoint: 7.0°C (45°F) [RH = 52%]
Pressure (altimeter): 30.18 inches Hg (1022.0 mb)
Winds: from the E (90 degrees) at 3 MPH (3 knots; 1.5 m/s)
Visibility: 6 or more miles (10+ km)
Ceiling: ceiling and visibility are OK
Clouds: unknown
Weather: no significant weather observed at this time

METAR text: LEZL 171100Z 09004KT 030V170 CAVOK 16/07 Q1023 NOSIG
Conditions at: LEZL (SEVILLA (CIV/MIL, ES) observed 1100 UTC 17 February 2019
Temperature: 16.0°C (61°F)
Dewpoint: 7.0°C (45°F) [RH = 55%]
Pressure (altimeter): 30.21 inches Hg (1023.0 mb)
Winds: from the E (90 degrees) at 5 MPH (4 knots; 2.1 m/s)
Visibility: 6 or more miles (10+ km)
Ceiling: ceiling and visibility are OK
Clouds: unknown
Weather: no significant weather observed at this time

Forecast for: LEZL (SEVILLA (CIV/MIL, ES)
Text: TAF LEZL 170800Z 1709/1809 04006KT CAVOK TX21/1715Z TN09/1807Z
Forecast period: 0900 UTC 17 February 2019 to 0900 UTC 18 February 2019
Forecast type: FROM: standard forecast or significant change
Winds: from the NE (40 degrees) at 7 MPH (6 knots; 3.1 m/s)
Visibility: 6 or more miles 10+ km)
Ceiling: unknown
Clouds: missing
Weather: no significant weather forecast for this period

 MAPA DE AEROPUERTO

 INFORMACIÓN DE PISTA
Pista 09 Longitud 11024 ft Ancho 148 ft
Elevación 83 ft Umbral desplazado 0 ft Rumbo de pista 90
Pista 27 Longitud 11024 ft Ancho 148 ft
Elevación 111 ft Umbral desplazado 0 ft Rumbo de pista 270

 FRECUANCIAS DEL AEROPUERTO
Tipo APP Nombre APP Frecuencia 120 MHZ
Tipo ATIS Nombre ATIS Frecuencia 118.175 MHZ
Tipo GND Nombre GND Frecuencia 121.7 MHZ
Tipo TWR Nombre TWR Frecuencia 118.1 MHZ

 RADIO AYUDAS DEL AEROPUERTO
Tipo NDB Nombre Sevilla Frecuencia 420 KHZ
Tipo VOR-DME Nombre Sevilla Frecuencia 113700 KHZ



Powered by Virtual Airlines Manager [v2.6.2]